Aviation Digital Data Service (ADDS)

Output produced by METARs form (0629 UTC 23 February 2018)
found at http://aviationweather.gov/adds/metars/
 
METAR text: KSPB 230553Z AUTO 00000KT 10SM CLR M03/M06 A3044 RMK AO2 SLP307 T10331061 10028 21033 53019
Conditions at: KSPB (SCAPPOOSE , OR, US) observed 0553 UTC 23 February 2018
Temperature: -3.3°C (26°F)
Dewpoint: -6.1°C (21°F) [RH = 81%]
Pressure (altimeter): 30.44 inches Hg (1030.9 mb)
[Sea-level pressure: 1030.7 mb]
Winds: calm
Visibility: 10 or more miles (16+ km)
Ceiling: at least 12,000 feet AGL
Clouds: sky clear below 12,000 feet AGL
Weather: automated observation with no human augmentation;
there may or may not be significant weather present at this time

METAR text: KSPB 230453Z AUTO 29004KT 10SM CLR M02/M06 A3042 RMK AO2 SLP301 T10221056
Conditions at: KSPB (SCAPPOOSE , OR, US) observed 0453 UTC 23 February 2018
Temperature: -2.2°C (28°F)
Dewpoint: -5.6°C (22°F) [RH = 77%]
Pressure (altimeter): 30.42 inches Hg (1030.2 mb)
[Sea-level pressure: 1030.1 mb]
Winds: from the WNW (290 degrees) at 5 MPH (4 knots; 2.1 m/s)
Visibility: 10 or more miles (16+ km)
Ceiling: at least 12,000 feet AGL
Clouds: sky clear below 12,000 feet AGL
Weather: automated observation with no human augmentation;
there may or may not be significant weather present at this time